createdAt,value
2023-03-15T00:00:26.799Z,0.40
2023-03-15T00:01:26.868Z,0.40
2023-03-15T00:02:26.860Z,0.50
2023-03-15T00:03:26.861Z,0.40
2023-03-15T00:04:26.769Z,0.40
2023-03-15T00:05:26.760Z,0.50
2023-03-15T00:06:26.780Z,0.50
2023-03-15T00:07:26.762Z,0.40
2023-03-15T00:08:26.736Z,0.40
2023-03-15T00:09:26.744Z,0.50
2023-03-15T00:10:26.748Z,0.40
2023-03-15T00:11:26.744Z,0.50
2023-03-15T00:12:26.716Z,0.40
2023-03-15T00:13:26.713Z,0.50
2023-03-15T00:14:26.722Z,0.50
2023-03-15T00:15:26.697Z,0.50
2023-03-15T00:16:26.692Z,0.40
2023-03-15T00:17:26.692Z,0.60
2023-03-15T00:18:26.684Z,0.50
2023-03-15T00:19:26.675Z,0.50
2023-03-15T00:20:26.672Z,0.60
2023-03-15T00:21:26.656Z,0.40
2023-03-15T00:22:26.654Z,0.50
2023-03-15T00:23:26.661Z,0.60
2023-03-15T00:24:26.637Z,0.50
2023-03-15T00:25:26.649Z,0.50
2023-03-15T00:26:26.630Z,0.50
2023-03-15T00:27:26.643Z,0.40
2023-03-15T00:28:26.622Z,0.60
2023-03-15T00:29:26.617Z,0.40
2023-03-15T00:30:26.606Z,0.50
2023-03-15T00:31:26.639Z,0.50
2023-03-15T00:32:26.643Z,0.40
2023-03-15T00:33:26.598Z,0.50
2023-03-15T00:34:26.590Z,0.40
2023-03-15T00:35:26.584Z,0.40
2023-03-15T00:36:26.559Z,0.50
2023-03-15T00:37:26.556Z,0.60
2023-03-15T00:38:26.572Z,0.40
2023-03-15T00:39:26.553Z,0.60
2023-03-15T00:40:26.545Z,0.40
2023-03-15T00:41:26.530Z,0.50
2023-03-15T00:42:26.522Z,0.50
2023-03-15T00:43:26.523Z,0.50
2023-03-15T00:44:26.519Z,0.50
2023-03-15T00:45:26.506Z,0.50
2023-03-15T00:46:26.622Z,0.40
2023-03-15T00:47:26.490Z,0.60
2023-03-15T00:48:26.496Z,0.50
2023-03-15T00:49:26.480Z,0.50
2023-03-15T00:50:26.472Z,0.40
2023-03-15T00:51:26.488Z,0.40
2023-03-15T00:52:26.506Z,0.50
2023-03-15T00:53:26.452Z,0.50
2023-03-15T00:54:26.464Z,0.40
2023-03-15T00:55:26.437Z,0.50
2023-03-15T00:56:26.432Z,0.50
2023-03-15T00:57:26.435Z,0.50
2023-03-15T00:58:27.541Z,0.40
2023-03-15T00:59:27.439Z,0.50
2023-03-15T01:00:26.410Z,0.40
2023-03-15T01:01:26.472Z,0.50
2023-03-15T01:02:26.401Z,0.50
2023-03-15T01:03:26.385Z,0.40
2023-03-15T01:04:26.393Z,0.40
2023-03-15T01:05:26.386Z,0.50
2023-03-15T01:06:26.371Z,0.50
2023-03-15T01:07:26.361Z,0.50
2023-03-15T01:08:26.366Z,0.50
2023-03-15T01:09:26.372Z,0.40
2023-03-15T01:10:26.336Z,0.50
2023-03-15T01:11:26.328Z,0.50
2023-03-15T01:12:26.328Z,0.40
2023-03-15T01:13:26.323Z,0.50
2023-03-15T01:14:26.320Z,0.50
2023-03-15T01:15:26.300Z,0.40
2023-03-15T01:16:26.372Z,0.50
2023-03-15T01:17:26.292Z,0.50
2023-03-15T01:18:26.287Z,0.40
2023-03-15T01:19:26.281Z,0.50
2023-03-15T01:20:26.289Z,0.40
2023-03-15T01:21:26.269Z,0.40
2023-03-15T01:22:26.260Z,0.50
2023-03-15T01:23:26.247Z,0.50
2023-03-15T01:24:26.246Z,0.60
2023-03-15T01:25:26.264Z,0.40
2023-03-15T01:26:26.245Z,0.50
2023-03-15T01:27:26.251Z,0.60
2023-03-15T01:28:26.216Z,0.50
2023-03-15T01:29:26.215Z,0.50
2023-03-15T01:30:26.204Z,0.50
2023-03-15T01:31:26.298Z,0.60
2023-03-15T01:32:26.320Z,0.50
2023-03-15T01:33:26.194Z,0.50
2023-03-15T01:34:26.187Z,0.40
2023-03-15T01:35:26.167Z,0.50
2023-03-15T01:36:26.178Z,0.40
2023-03-15T01:37:26.189Z,0.40
2023-03-15T01:38:26.155Z,0.40
2023-03-15T01:39:26.153Z,0.40
2023-03-15T01:40:26.133Z,0.50
2023-03-15T01:41:26.137Z,0.50
2023-03-15T01:42:26.124Z,0.50
2023-03-15T01:43:26.147Z,0.50
2023-03-15T01:44:26.118Z,0.50
2023-03-15T01:45:26.101Z,0.40
2023-03-15T01:46:26.169Z,0.60
2023-03-15T01:47:26.152Z,0.50
2023-03-15T01:48:26.112Z,0.60
2023-03-15T01:49:26.085Z,0.40
2023-03-15T01:50:26.064Z,0.50
2023-03-15T01:51:26.061Z,0.50
2023-03-15T01:52:26.049Z,0.50
2023-03-15T01:53:26.057Z,0.50
2023-03-15T01:54:26.039Z,0.40
2023-03-15T01:55:26.040Z,0.40
2023-03-15T01:56:26.030Z,0.50
2023-03-15T01:57:26.019Z,0.50
2023-03-15T01:58:26.016Z,0.50
2023-03-15T01:59:26.028Z,0.50
2023-03-15T02:00:25.993Z,0.40
2023-03-15T02:01:25.993Z,0.50
2023-03-15T02:02:26.107Z,0.50
2023-03-15T02:03:25.998Z,0.40
2023-03-15T02:04:25.979Z,0.50
2023-03-15T02:05:25.975Z,0.60
2023-03-15T02:06:25.969Z,0.50
2023-03-15T02:07:25.993Z,0.40
2023-03-15T02:08:25.951Z,0.40
2023-03-15T02:09:25.944Z,0.50
2023-03-15T02:10:25.943Z,0.50
2023-03-15T02:11:25.940Z,0.40
2023-03-15T02:12:25.927Z,0.60
2023-03-15T02:13:25.929Z,0.50
2023-03-15T02:14:25.927Z,0.50
2023-03-15T02:15:25.927Z,0.50
2023-03-15T02:16:25.945Z,0.40
2023-03-15T02:17:25.889Z,0.50
2023-03-15T02:18:25.884Z,0.70
2023-03-15T02:19:25.874Z,0.50
2023-03-15T02:20:25.873Z,0.50
2023-03-15T02:21:25.904Z,0.40
2023-03-15T02:22:25.870Z,0.50
2023-03-15T02:23:25.867Z,0.50
2023-03-15T02:24:25.850Z,0.40
2023-03-15T02:25:25.843Z,0.60
2023-03-15T02:26:25.829Z,0.50
2023-03-15T02:27:25.871Z,0.50
2023-03-15T02:28:25.817Z,0.50
2023-03-15T02:29:25.821Z,0.40
2023-03-15T02:30:25.812Z,0.50
2023-03-15T02:31:25.826Z,0.40
2023-03-15T02:32:25.892Z,0.50
2023-03-15T02:33:25.786Z,0.40
2023-03-15T02:34:25.773Z,0.50
2023-03-15T02:35:25.795Z,0.50
2023-03-15T02:36:25.764Z,0.40
2023-03-15T02:37:25.764Z,0.50
2023-03-15T02:38:25.774Z,0.50
2023-03-15T02:39:25.748Z,0.40
2023-03-15T02:40:25.749Z,0.50
2023-03-15T02:41:25.771Z,0.50
2023-03-15T02:42:25.751Z,0.40
2023-03-15T02:43:25.717Z,0.50
2023-03-15T02:44:25.714Z,0.50
2023-03-15T02:45:25.694Z,0.40
2023-03-15T02:46:25.792Z,0.50
2023-03-15T02:47:25.737Z,0.70
2023-03-15T02:48:25.684Z,0.50
2023-03-15T02:49:25.675Z,0.60
2023-03-15T02:50:25.677Z,0.40
2023-03-15T02:51:25.662Z,0.50
2023-03-15T02:52:25.665Z,0.60
2023-03-15T02:53:25.649Z,0.40
2023-03-15T02:54:25.667Z,0.60
2023-03-15T02:55:25.634Z,0.50
2023-03-15T02:56:25.629Z,0.50
2023-03-15T02:57:25.755Z,0.60
2023-03-15T02:58:25.614Z,0.50
2023-03-15T02:59:25.605Z,0.40
2023-03-15T03:00:25.607Z,0.40
2023-03-15T03:01:25.633Z,0.50
2023-03-15T03:02:25.682Z,0.50
2023-03-15T03:03:25.585Z,0.50
2023-03-15T03:04:25.582Z,0.40
2023-03-15T03:05:25.571Z,0.50
2023-03-15T03:06:25.559Z,0.50
2023-03-15T03:07:25.602Z,0.50
2023-03-15T03:08:25.544Z,0.50
2023-03-15T03:09:25.541Z,0.50
2023-03-15T03:10:25.549Z,0.50
2023-03-15T03:11:25.537Z,0.50
2023-03-15T03:12:25.524Z,0.50
2023-03-15T03:13:25.508Z,0.60
2023-03-15T03:14:25.518Z,0.50
2023-03-15T03:15:25.501Z,0.50
2023-03-15T03:16:25.577Z,0.60
2023-03-15T03:17:25.480Z,0.40
2023-03-15T03:18:25.475Z,0.50
2023-03-15T03:19:25.487Z,0.50
2023-03-15T03:20:25.459Z,0.50
2023-03-15T03:21:25.446Z,0.50
2023-03-15T03:22:25.456Z,0.40
2023-03-15T03:23:25.439Z,0.50
2023-03-15T03:24:25.447Z,0.60
2023-03-15T03:25:25.424Z,0.50
2023-03-15T03:26:25.420Z,0.60
2023-03-15T03:27:25.420Z,0.40
2023-03-15T03:28:25.406Z,0.60
2023-03-15T03:29:25.420Z,0.50
2023-03-15T03:30:25.410Z,0.60
2023-03-15T03:31:25.392Z,0.50
2023-03-15T03:32:25.400Z,0.50
2023-03-15T03:33:25.422Z,0.40
2023-03-15T03:34:25.388Z,0.50
2023-03-15T03:35:25.355Z,0.50
2023-03-15T03:36:25.357Z,0.50
2023-03-15T03:37:25.351Z,0.50
2023-03-15T03:38:25.357Z,0.60
2023-03-15T03:39:25.331Z,0.60
2023-03-15T03:40:25.332Z,0.40
2023-03-15T03:41:25.328Z,0.60
2023-03-15T03:42:25.315Z,0.40
2023-03-15T03:43:25.342Z,0.50
2023-03-15T03:44:25.298Z,0.50
2023-03-15T03:45:25.290Z,0.40
2023-03-15T03:46:25.329Z,0.50
2023-03-15T03:47:25.278Z,0.50
2023-03-15T03:48:25.294Z,0.50
2023-03-15T03:49:25.262Z,0.60
2023-03-15T03:50:25.257Z,0.50
2023-03-15T03:51:25.250Z,0.60
2023-03-15T03:52:25.235Z,0.50
2023-03-15T03:53:25.241Z,0.50
2023-03-15T03:54:25.250Z,0.50
2023-03-15T03:55:25.390Z,0.40
2023-03-15T03:56:25.228Z,0.50
2023-03-15T03:57:25.220Z,0.50
2023-03-15T03:58:25.205Z,0.40
2023-03-15T03:59:25.201Z,0.60
2023-03-15T04:00:25.192Z,0.50
2023-03-15T04:01:25.194Z,0.60
2023-03-15T04:02:26.238Z,0.40
2023-03-15T04:03:25.174Z,0.60
2023-03-15T04:04:25.189Z,0.50
2023-03-15T04:05:25.161Z,0.40
2023-03-15T04:06:25.171Z,0.50
2023-03-15T04:07:25.149Z,0.50
2023-03-15T04:08:25.144Z,0.50
2023-03-15T04:09:25.169Z,0.60
2023-03-15T04:10:25.135Z,0.50
2023-03-15T04:11:25.134Z,0.60
2023-03-15T04:12:25.165Z,0.40
2023-03-15T04:13:25.118Z,0.50
2023-03-15T04:14:25.102Z,0.60
2023-03-15T04:15:25.104Z,0.40
2023-03-15T04:16:25.140Z,0.60
2023-03-15T04:17:25.111Z,0.50
2023-03-15T04:18:25.102Z,0.50
2023-03-15T04:19:25.070Z,0.50
2023-03-15T04:20:25.071Z,0.50
2023-03-15T04:21:25.074Z,0.50
2023-03-15T04:22:25.056Z,0.60
2023-03-15T04:23:25.082Z,0.60
2023-03-15T04:24:25.052Z,0.50
2023-03-15T04:25:25.024Z,0.50
2023-03-15T04:26:25.034Z,0.50
2023-03-15T04:27:25.026Z,0.60
2023-03-15T04:28:25.048Z,0.40
2023-03-15T04:29:25.009Z,0.60
2023-03-15T04:30:25.003Z,0.40
2023-03-15T04:31:25.108Z,0.50
2023-03-15T04:32:25.015Z,0.50
2023-03-15T04:33:24.994Z,0.50
2023-03-15T04:34:25.003Z,0.60
2023-03-15T04:35:24.978Z,0.40
2023-03-15T04:36:24.966Z,0.50
2023-03-15T04:37:24.968Z,0.70
2023-03-15T04:38:24.959Z,0.50
2023-03-15T04:39:24.947Z,0.50
2023-03-15T04:40:24.956Z,0.50
2023-03-15T04:41:24.948Z,0.60
2023-03-15T04:42:24.928Z,0.50
2023-03-15T04:43:24.912Z,0.60
2023-03-15T04:44:24.929Z,0.40
2023-03-15T04:45:24.900Z,0.50
2023-03-15T04:46:25.157Z,0.50
2023-03-15T04:47:25.889Z,0.50
2023-03-15T04:48:24.891Z,0.50
2023-03-15T04:49:24.898Z,0.40
2023-03-15T04:50:24.877Z,0.50
2023-03-15T04:51:24.861Z,0.50
2023-03-15T04:52:24.868Z,0.40
2023-03-15T04:53:24.852Z,0.50
2023-03-15T04:54:24.858Z,0.50
2023-03-15T04:55:24.838Z,0.50
2023-03-15T04:56:24.841Z,0.50
2023-03-15T04:57:24.826Z,0.60
2023-03-15T04:58:24.820Z,0.50
2023-03-15T04:59:24.818Z,0.50
2023-03-15T05:00:24.930Z,0.50
2023-03-15T05:01:24.815Z,0.40
2023-03-15T05:02:24.868Z,0.60
2023-03-15T05:03:24.793Z,0.60
2023-03-15T05:04:24.780Z,0.50
2023-03-15T05:05:24.804Z,0.50
2023-03-15T05:06:24.833Z,0.50
2023-03-15T05:07:24.754Z,0.50
2023-03-15T05:08:24.763Z,0.50
2023-03-15T05:09:24.750Z,0.60
2023-03-15T05:10:24.741Z,0.50
2023-03-15T05:11:24.776Z,0.60
2023-03-15T05:12:24.721Z,0.50
2023-03-15T05:13:24.725Z,0.60
2023-03-15T05:14:24.712Z,0.40
2023-03-15T05:15:24.739Z,0.50
2023-03-15T05:16:24.740Z,0.60
2023-03-15T05:17:24.716Z,0.50
2023-03-15T05:18:24.685Z,0.50
2023-03-15T05:19:24.685Z,0.40
2023-03-15T05:20:24.677Z,0.50
2023-03-15T05:21:24.670Z,0.60
2023-03-15T05:22:24.690Z,0.50
2023-03-15T05:23:24.656Z,0.60
2023-03-15T05:24:24.657Z,0.50
2023-03-15T05:25:24.642Z,0.50
2023-03-15T05:26:24.646Z,0.50
2023-03-15T05:27:24.633Z,0.50
2023-03-15T05:28:24.640Z,0.40
2023-03-15T05:29:24.633Z,0.50
2023-03-15T05:30:24.617Z,0.60
2023-03-15T05:31:24.620Z,0.50
2023-03-15T05:32:24.612Z,0.50
2023-03-15T05:33:24.586Z,0.60
2023-03-15T05:34:24.597Z,0.50
2023-03-15T05:35:24.599Z,0.50
2023-03-15T05:36:24.566Z,0.50
2023-03-15T05:37:24.578Z,0.50
2023-03-15T05:38:24.558Z,0.50
2023-03-15T05:39:24.548Z,0.50
2023-03-15T05:40:24.551Z,0.50
2023-03-15T05:41:24.540Z,0.60
2023-03-15T05:42:24.533Z,0.50
2023-03-15T05:43:24.529Z,0.50
2023-03-15T05:44:24.536Z,0.50
2023-03-15T05:45:24.512Z,0.50
2023-03-15T05:46:24.513Z,0.50
2023-03-15T05:47:24.522Z,0.50
2023-03-15T05:48:24.512Z,0.50
2023-03-15T05:49:24.521Z,0.50
2023-03-15T05:50:24.487Z,0.60
2023-03-15T05:51:24.480Z,0.50
2023-03-15T05:52:24.468Z,0.50
2023-03-15T05:53:24.472Z,0.60
2023-03-15T05:54:24.469Z,0.50
2023-03-15T05:55:24.459Z,0.50
2023-03-15T05:56:24.445Z,0.50
2023-03-15T05:57:24.446Z,0.50
2023-03-15T05:58:24.437Z,0.50
2023-03-15T05:59:24.499Z,0.40
2023-03-15T06:00:24.429Z,0.40
2023-03-15T06:01:24.438Z,0.60
2023-03-15T06:02:24.403Z,0.50
2023-03-15T06:03:24.442Z,0.50
2023-03-15T06:04:24.445Z,0.60
2023-03-15T06:05:24.403Z,0.50
2023-03-15T06:06:24.408Z,0.50
2023-03-15T06:07:24.372Z,0.60
2023-03-15T06:08:24.367Z,0.40
2023-03-15T06:09:24.359Z,0.50
2023-03-15T06:10:24.362Z,0.60
2023-03-15T06:11:24.371Z,0.50
2023-03-15T06:12:24.343Z,0.70
2023-03-15T06:13:24.343Z,0.50
2023-03-15T06:14:24.330Z,0.50
2023-03-15T06:15:24.325Z,0.40
2023-03-15T06:16:24.427Z,0.60
2023-03-15T06:17:24.340Z,0.50
2023-03-15T06:18:24.295Z,0.50
2023-03-15T06:19:24.292Z,0.60
2023-03-15T06:20:24.289Z,0.50
2023-03-15T06:21:24.276Z,0.60
2023-03-15T06:22:24.275Z,0.50
2023-03-15T06:23:24.275Z,0.50
2023-03-15T06:24:24.253Z,0.70
2023-03-15T06:25:24.252Z,0.50
2023-03-15T06:26:24.247Z,0.50
2023-03-15T06:27:24.241Z,0.50
2023-03-15T06:28:24.241Z,0.50
2023-03-15T06:29:24.222Z,0.50
2023-03-15T06:30:24.217Z,0.50
2023-03-15T06:31:24.206Z,0.50
2023-03-15T06:32:24.284Z,0.60
2023-03-15T06:33:24.216Z,0.60
2023-03-15T06:34:24.190Z,0.50
2023-03-15T06:35:24.179Z,0.50
2023-03-15T06:36:24.173Z,0.50
2023-03-15T06:37:34.701Z,0.60
2023-03-15T06:38:26.192Z,0.50
2023-03-15T06:39:24.152Z,0.50
2023-03-15T06:40:24.149Z,0.60
2023-03-15T06:41:24.216Z,0.50
2023-03-15T06:42:24.132Z,0.60
2023-03-15T06:43:24.127Z,0.50
2023-03-15T06:44:24.133Z,0.50
2023-03-15T06:45:24.123Z,0.60
2023-03-15T06:46:24.175Z,0.40
2023-03-15T06:47:24.100Z,0.50
2023-03-15T06:48:24.144Z,0.60
2023-03-15T06:49:24.081Z,0.50
2023-03-15T06:50:26.152Z,0.50
2023-03-15T06:51:24.090Z,0.60
2023-03-15T06:52:24.063Z,0.50
2023-03-15T06:53:24.085Z,0.50
2023-03-15T06:54:24.059Z,0.60
2023-03-15T06:55:24.045Z,0.60
2023-03-15T06:56:24.045Z,0.50
2023-03-15T06:57:24.130Z,0.60
2023-03-15T06:58:24.034Z,0.50
2023-03-15T06:59:24.041Z,0.70
2023-03-15T07:00:24.036Z,0.50
2023-03-15T07:01:24.070Z,0.50
2023-03-15T07:02:24.062Z,0.50
2023-03-15T07:03:24.006Z,0.50
2023-03-15T07:04:24.029Z,0.70
2023-03-15T07:05:24.014Z,0.50
2023-03-15T07:06:23.980Z,0.70
2023-03-15T07:07:23.979Z,0.60
2023-03-15T07:08:23.978Z,0.60
2023-03-15T07:09:23.952Z,0.50
2023-03-15T07:10:23.960Z,0.50
2023-03-15T07:11:23.957Z,0.60
2023-03-15T07:12:23.948Z,0.40
2023-03-15T07:13:23.950Z,0.60
2023-03-15T07:14:23.937Z,0.60
2023-03-15T07:15:23.930Z,0.50
2023-03-15T07:16:23.970Z,0.60
2023-03-15T07:17:23.913Z,0.40
2023-03-15T07:18:23.925Z,0.60
2023-03-15T07:19:23.897Z,0.60
2023-03-15T07:20:23.896Z,0.50
2023-03-15T07:21:24.032Z,0.60
2023-03-15T07:22:23.880Z,0.60
2023-03-15T07:23:23.870Z,0.50
2023-03-15T07:24:23.870Z,0.50
2023-03-15T07:25:23.892Z,0.50
2023-03-15T07:26:23.910Z,0.50
2023-03-15T07:27:23.855Z,0.60
2023-03-15T07:28:23.838Z,0.50
2023-03-15T07:29:23.843Z,0.50
2023-03-15T07:30:23.833Z,0.70
2023-03-15T07:31:23.826Z,0.60
2023-03-15T07:32:23.942Z,0.50
2023-03-15T07:33:23.835Z,0.40
2023-03-15T07:34:23.807Z,0.60
2023-03-15T07:35:23.854Z,0.50
2023-03-15T07:36:23.803Z,0.60
2023-03-15T07:37:23.799Z,0.50
2023-03-15T07:38:23.765Z,0.50
2023-03-15T07:39:23.788Z,0.50
2023-03-15T07:40:23.757Z,0.50
2023-03-15T07:41:23.773Z,0.50
2023-03-15T07:42:23.748Z,0.60
2023-03-15T07:43:23.740Z,0.60
2023-03-15T07:44:23.737Z,0.50
2023-03-15T07:45:23.719Z,0.60
2023-03-15T07:46:23.797Z,0.50
2023-03-15T07:47:23.705Z,0.50
2023-03-15T07:48:23.693Z,0.60
2023-03-15T07:49:24.700Z,0.50
2023-03-15T07:50:23.693Z,0.50
2023-03-15T07:51:23.682Z,0.50
2023-03-15T07:52:23.694Z,0.60
2023-03-15T07:53:23.667Z,0.50
2023-03-15T07:54:23.658Z,0.50
2023-03-15T07:55:23.670Z,0.60
2023-03-15T07:56:23.671Z,0.50
2023-03-15T07:57:23.640Z,0.50
2023-03-15T07:58:23.646Z,0.50
2023-03-15T07:59:23.628Z,0.60
2023-03-15T08:00:23.612Z,0.50
2023-03-15T08:01:23.626Z,0.50
2023-03-15T08:02:23.652Z,0.70
2023-03-15T08:03:23.701Z,0.40
2023-03-15T08:04:23.605Z,0.50
2023-03-15T08:05:23.592Z,0.50
2023-03-15T08:06:23.580Z,0.50
2023-03-15T08:07:23.595Z,0.50
2023-03-15T08:08:23.565Z,0.40
2023-03-15T08:09:23.571Z,0.40
2023-03-15T08:10:23.609Z,0.40
2023-03-15T08:11:23.558Z,0.60
2023-03-15T08:12:23.545Z,0.50
2023-03-15T08:13:23.528Z,0.50
2023-03-15T08:14:23.544Z,0.50
2023-03-15T08:15:23.514Z,0.40
2023-03-15T08:16:23.528Z,0.50
2023-03-15T08:17:23.507Z,0.50
2023-03-15T08:18:23.518Z,0.50
2023-03-15T08:19:23.486Z,0.50
2023-03-15T08:20:23.484Z,0.50
2023-03-15T08:21:23.476Z,0.50
2023-03-15T08:22:23.466Z,0.40
2023-03-15T08:23:23.502Z,0.50
2023-03-15T08:24:23.458Z,0.80
2023-03-15T08:25:23.470Z,0.60
2023-03-15T08:26:23.448Z,0.50
2023-03-15T08:27:23.436Z,0.50
2023-03-15T08:28:23.434Z,0.40
2023-03-15T08:29:23.419Z,0.50
2023-03-15T08:30:23.416Z,0.70
2023-03-15T08:31:23.500Z,0.50
2023-03-15T08:32:23.410Z,0.60
2023-03-15T08:33:23.390Z,0.60
2023-03-15T08:34:23.386Z,0.60
2023-03-15T08:35:23.435Z,0.50
2023-03-15T08:36:23.569Z,0.60
2023-03-15T08:37:23.382Z,0.50
2023-03-15T08:38:23.360Z,0.50
2023-03-15T08:39:23.354Z,0.50
2023-03-15T08:40:23.347Z,0.50
2023-03-15T08:41:23.365Z,0.60
2023-03-15T08:42:23.330Z,0.50
2023-03-15T08:43:23.316Z,0.30
2023-03-15T08:44:23.325Z,0.40
2023-03-15T08:45:23.312Z,0.30
2023-03-15T08:46:23.422Z,0.30
2023-03-15T08:47:23.294Z,0.40
2023-03-15T08:48:23.285Z,0.40
2023-03-15T08:49:23.275Z,0.30
2023-03-15T08:50:23.268Z,0.20
2023-03-15T08:51:23.257Z,0.40
2023-03-15T08:52:23.272Z,0.20
2023-03-15T08:53:23.268Z,0.20
2023-03-15T08:54:23.240Z,0.30
2023-03-15T08:55:23.247Z,0.40
2023-03-15T08:56:23.226Z,0.30
2023-03-15T08:57:23.243Z,0.30
2023-03-15T08:58:23.207Z,0.30
2023-03-15T08:59:31.698Z,0.20
2023-03-15T09:00:25.260Z,0.30
2023-03-15T09:01:24.205Z,0.30
2023-03-15T09:02:23.273Z,0.30
2023-03-15T09:03:23.176Z,0.30
2023-03-15T09:04:23.204Z,0.30
2023-03-15T09:05:23.157Z,0.30
2023-03-15T09:06:23.146Z,0.20
2023-03-15T09:07:23.147Z,0.40
2023-03-15T09:08:23.130Z,0.40
2023-03-15T09:09:23.126Z,0.30
2023-03-15T09:10:23.120Z,0.40
2023-03-15T09:11:23.114Z,0.40
2023-03-15T09:12:23.111Z,0.50
2023-03-15T09:13:23.101Z,0.40
2023-03-15T09:14:23.089Z,0.40
2023-03-15T09:15:23.088Z,0.60
2023-03-15T09:16:23.102Z,0.40
2023-03-15T09:17:23.075Z,0.50
2023-03-15T09:18:23.069Z,0.40
2023-03-15T09:19:23.058Z,0.30
2023-03-15T09:20:23.209Z,0.40
2023-03-15T09:21:23.038Z,0.50
2023-03-15T09:22:38.655Z,0.50
2023-03-15T09:23:25.030Z,0.30
2023-03-15T09:24:23.018Z,0.40
2023-03-15T09:25:23.029Z,0.30
2023-03-15T09:26:23.011Z,0.30
2023-03-15T09:27:22.986Z,0.30
2023-03-15T09:28:23.027Z,0.30
2023-03-15T09:29:22.996Z,0.40
2023-03-15T09:30:23.064Z,0.30
2023-03-15T09:31:23.019Z,0.40
2023-03-15T09:32:23.008Z,0.20
2023-03-15T09:33:22.980Z,0.30
2023-03-15T09:34:23.545Z,0.30
2023-03-15T09:35:22.943Z,0.20
2023-03-15T09:36:22.956Z,0.30
2023-03-15T09:37:22.936Z,0.20
2023-03-15T09:38:22.919Z,0.30
2023-03-15T09:39:22.924Z,0.20
2023-03-15T09:40:22.908Z,0.30
2023-03-15T09:41:22.910Z,0.50
2023-03-15T09:42:22.911Z,0.40
2023-03-15T09:43:22.888Z,0.30
2023-03-15T09:44:22.882Z,0.40
2023-03-15T09:45:22.872Z,0.30
2023-03-15T09:46:22.878Z,0.20
2023-03-15T09:47:22.875Z,0.30
2023-03-15T09:48:22.852Z,0.40
2023-03-15T09:49:22.840Z,0.40
2023-03-15T09:50:22.886Z,0.40
2023-03-15T09:51:22.863Z,0.30
2023-03-15T09:52:22.828Z,0.20
2023-03-15T09:53:22.823Z,0.30
2023-03-15T09:54:22.822Z,0.40
2023-03-15T09:55:22.809Z,0.30
2023-03-15T09:56:22.813Z,0.30
2023-03-15T09:57:22.789Z,0.40
2023-03-15T09:58:22.814Z,0.40
2023-03-15T09:59:22.993Z,0.40
2023-03-15T10:00:22.858Z,0.30
2023-03-15T10:01:22.815Z,0.30
2023-03-15T10:02:22.758Z,0.30
2023-03-15T10:03:22.772Z,0.40
2023-03-15T10:04:22.719Z,0.30
2023-03-15T10:05:22.730Z,0.30
2023-03-15T10:06:22.734Z,0.20
2023-03-15T10:07:22.711Z,0.40
2023-03-15T10:08:22.697Z,0.40
2023-03-15T10:09:22.708Z,0.30
2023-03-15T10:10:22.768Z,0.30
2023-03-15T10:11:22.683Z,0.20
2023-03-15T10:12:22.680Z,0.50
2023-03-15T10:13:22.669Z,0.60
2023-03-15T10:14:22.673Z,0.50
2023-03-15T10:15:22.644Z,0.60
2023-03-15T10:16:22.659Z,0.60
2023-03-15T10:17:22.637Z,0.50
2023-03-15T10:18:22.632Z,0.50
2023-03-15T10:19:22.650Z,0.20
2023-03-15T10:20:22.614Z,0.40
2023-03-15T10:21:22.625Z,0.40
2023-03-15T10:22:22.620Z,0.40
2023-03-15T10:23:22.592Z,0.20
2023-03-15T10:24:22.593Z,0.10
2023-03-15T10:25:22.582Z,0.20
2023-03-15T10:26:22.594Z,0.20
2023-03-15T10:27:22.573Z,0.20
2023-03-15T10:28:22.558Z,0.10
2023-03-15T10:29:22.545Z,0.10
2023-03-15T10:30:22.551Z,0.20
2023-03-15T10:31:32.863Z,0.50
2023-03-15T10:32:23.533Z,0.60
2023-03-15T10:33:22.535Z,0.50
2023-03-15T10:34:22.517Z,0.40
2023-03-15T10:35:22.505Z,0.40
2023-03-15T10:36:22.555Z,0.40
2023-03-15T10:37:22.488Z,0.40
2023-03-15T10:38:22.512Z,0.30
2023-03-15T10:39:22.480Z,0.50
2023-03-15T10:40:22.481Z,0.30
2023-03-15T10:41:28.730Z,0.30
2023-03-15T10:42:24.473Z,0.10
2023-03-15T10:43:22.449Z,0.10
2023-03-15T10:44:22.435Z,0.10
2023-03-15T10:45:22.446Z,0.10
2023-03-15T10:46:22.440Z,0.10
2023-03-15T10:47:24.382Z,0.10
2023-03-15T10:48:23.520Z,0.20
2023-03-15T10:49:22.400Z,0.10
2023-03-15T10:50:23.398Z,0.10
2023-03-15T10:51:22.404Z,0.10
2023-03-15T10:52:22.395Z,0.10
2023-03-15T10:53:22.390Z,0.10
2023-03-15T10:54:22.384Z,0.10
2023-03-15T10:55:22.373Z,0.40
2023-03-15T10:56:22.357Z,0.40
2023-03-15T10:57:22.364Z,0.50
2023-03-15T10:58:24.266Z,0.50
2023-03-15T10:59:23.338Z,0.30
2023-03-15T11:00:22.330Z,0.10
2023-03-15T11:01:22.337Z,0.10
2023-03-15T11:02:22.317Z,0.10
2023-03-15T11:03:22.327Z,0.10
2023-03-15T11:04:22.328Z,0.20
2023-03-15T11:05:22.303Z,0.10
2023-03-15T11:06:22.295Z,0.10
2023-03-15T11:07:22.281Z,0.10
2023-03-15T11:08:22.285Z,0.20
2023-03-15T11:09:22.273Z,0.10
2023-03-15T11:10:22.274Z,0.20
2023-03-15T11:11:22.264Z,0.20
2023-03-15T11:12:22.253Z,0.20
2023-03-15T11:13:22.250Z,0.10
2023-03-15T11:14:22.259Z,0.40
2023-03-15T11:15:22.229Z,0.40
2023-03-15T11:16:22.316Z,0.40
2023-03-15T11:17:22.228Z,0.40
2023-03-15T11:18:22.223Z,0.40
2023-03-15T11:19:22.213Z,0.40
2023-03-15T11:20:22.209Z,0.40
2023-03-15T11:21:22.205Z,0.40
2023-03-15T11:22:22.188Z,0.40
2023-03-15T11:23:22.184Z,0.30
2023-03-15T11:24:22.222Z,0.30
2023-03-15T11:25:24.855Z,0.40
2023-03-15T11:26:31.935Z,0.30
2023-03-15T11:27:24.140Z,0.30
2023-03-15T11:28:22.144Z,0.40
2023-03-15T11:29:22.165Z,0.40
2023-03-15T11:30:22.160Z,0.30
2023-03-15T11:31:22.167Z,0.40
2023-03-15T11:32:22.216Z,0.40
2023-03-15T11:33:22.104Z,0.40
2023-03-15T11:34:22.112Z,0.20
2023-03-15T11:35:22.222Z,0.10
2023-03-15T11:36:22.129Z,0.10
2023-03-15T11:37:22.095Z,0.20
2023-03-15T11:38:22.077Z,0.10
2023-03-15T11:39:22.078Z,0.10
2023-03-15T11:40:22.068Z,0.10
2023-03-15T11:41:22.077Z,0.10
2023-03-15T11:42:22.076Z,0.10
2023-03-15T11:43:22.044Z,0.10
2023-03-15T11:44:22.039Z,0.10
2023-03-15T11:45:22.103Z,0.10
2023-03-15T11:46:22.040Z,0.10
2023-03-15T11:47:22.040Z,0.10
2023-03-15T11:48:22.035Z,0.20
2023-03-15T11:49:22.018Z,0.30
2023-03-15T11:50:21.996Z,0.40
2023-03-15T11:51:21.994Z,0.30
2023-03-15T11:52:22.031Z,0.30
2023-03-15T11:53:21.980Z,0.30
2023-03-15T11:54:21.969Z,0.10
2023-03-15T11:55:21.963Z,0.10
2023-03-15T11:56:21.994Z,0.10
2023-03-15T11:57:21.968Z,0.10
2023-03-15T11:58:21.952Z,0.10
2023-03-15T11:59:21.938Z,0.10
2023-03-15T12:00:21.933Z,0.10
2023-03-15T12:01:21.932Z,0.30
2023-03-15T12:02:22.005Z,0.20
2023-03-15T12:03:21.958Z,0.10
2023-03-15T12:04:21.939Z,0.10
2023-03-15T12:05:21.904Z,0.30
2023-03-15T12:06:21.893Z,0.10
2023-03-15T12:07:21.897Z,0.30
2023-03-15T12:08:21.895Z,0.40
2023-03-15T12:09:24.226Z,0.40
2023-03-15T12:10:21.873Z,0.20
2023-03-15T12:11:21.864Z,0.30
2023-03-15T12:12:21.854Z,0.30
2023-03-15T12:13:21.878Z,0.40
2023-03-15T12:14:21.845Z,0.40
2023-03-15T12:15:21.843Z,0.40
2023-03-15T12:16:21.907Z,0.30
2023-03-15T12:17:21.827Z,0.30
2023-03-15T12:18:21.817Z,0.30
2023-03-15T12:19:21.827Z,0.30
2023-03-15T12:20:21.826Z,0.10
2023-03-15T12:21:21.788Z,0.20
2023-03-15T12:22:21.792Z,0.10
2023-03-15T12:23:21.773Z,0.10
2023-03-15T12:24:21.869Z,0.20
2023-03-15T12:25:21.788Z,0.10
2023-03-15T12:26:21.761Z,0.10
2023-03-15T12:27:21.773Z,0.10
2023-03-15T12:28:21.752Z,0.10
2023-03-15T12:29:21.775Z,0.10
2023-03-15T12:30:21.741Z,0.10
2023-03-15T12:31:21.779Z,0.10
2023-03-15T12:32:21.803Z,0.10
2023-03-15T12:33:21.720Z,0.10
2023-03-15T12:34:21.742Z,0.10
2023-03-15T12:35:21.707Z,0.10
2023-03-15T12:36:21.695Z,0.20
2023-03-15T12:37:21.715Z,0.20
2023-03-15T12:38:21.689Z,0.10
2023-03-15T12:39:21.700Z,0.10
2023-03-15T12:40:21.675Z,0.10
2023-03-15T12:41:21.674Z,0.10
2023-03-15T12:42:21.668Z,0.10
2023-03-15T12:43:21.686Z,0.20
2023-03-15T12:44:21.640Z,0.10
2023-03-15T12:45:21.675Z,0.10
2023-03-15T12:46:21.668Z,0.10
2023-03-15T12:47:21.674Z,0.10
2023-03-15T12:48:21.603Z,0.20
2023-03-15T12:49:21.613Z,0.10
2023-03-15T12:50:21.619Z,0.10
2023-03-15T12:51:21.581Z,0.10
2023-03-15T12:52:21.594Z,0.20
2023-03-15T12:53:21.580Z,0.10
2023-03-15T12:54:21.558Z,0.20
2023-03-15T12:55:21.549Z,0.20
2023-03-15T12:56:21.553Z,0.20
2023-03-15T12:57:21.554Z,0.20
2023-03-15T12:58:21.600Z,0.10
2023-03-15T12:59:21.522Z,0.20
2023-03-15T13:00:21.520Z,0.20
2023-03-15T13:01:21.524Z,0.30
2023-03-15T13:02:24.834Z,0.20
2023-03-15T13:03:23.562Z,0.10
2023-03-15T13:04:21.492Z,0.20
2023-03-15T13:05:21.514Z,0.10
2023-03-15T13:06:21.478Z,0.10
2023-03-15T13:07:21.479Z,0.20
2023-03-15T13:08:21.476Z,0.20
2023-03-15T13:09:21.469Z,0.20
2023-03-15T13:10:21.491Z,0.20
2023-03-15T13:11:21.483Z,0.20
2023-03-15T13:12:21.432Z,0.20
2023-03-15T13:13:21.445Z,0.20
2023-03-15T13:14:21.462Z,0.30
2023-03-15T13:15:21.424Z,0.20
2023-03-15T13:16:21.473Z,0.20
2023-03-15T13:17:21.419Z,0.20
2023-03-15T13:18:21.407Z,0.30